sensor_id;sensor_type;location;lat;lon;timestamp;temperature;humidity
75769;DHT22;64379;48.888;8.330;2024-01-07T00:01:58;3.90;91.00
75769;DHT22;64379;48.888;8.330;2024-01-07T00:04:24;3.90;91.10
75769;DHT22;64379;48.888;8.330;2024-01-07T00:06:52;3.90;91.10
75769;DHT22;64379;48.888;8.330;2024-01-07T00:09:17;3.90;91.00
75769;DHT22;64379;48.888;8.330;2024-01-07T00:11:43;3.90;91.10
75769;DHT22;64379;48.888;8.330;2024-01-07T00:14:09;3.90;91.10
75769;DHT22;64379;48.888;8.330;2024-01-07T00:16:34;3.90;91.10
75769;DHT22;64379;48.888;8.330;2024-01-07T00:19:00;3.90;91.00
75769;DHT22;64379;48.888;8.330;2024-01-07T00:21:26;3.90;91.00
75769;DHT22;64379;48.888;8.330;2024-01-07T00:23:51;4.00;91.00
75769;DHT22;64379;48.888;8.330;2024-01-07T00:26:17;4.00;91.00
75769;DHT22;64379;48.888;8.330;2024-01-07T00:28:42;3.90;90.90
75769;DHT22;64379;48.888;8.330;2024-01-07T00:31:08;4.00;90.80
75769;DHT22;64379;48.888;8.330;2024-01-07T00:33:37;4.10;90.90
75769;DHT22;64379;48.888;8.330;2024-01-07T00:36:03;4.10;90.90
75769;DHT22;64379;48.888;8.330;2024-01-07T00:38:28;4.10;90.90
75769;DHT22;64379;48.888;8.330;2024-01-07T00:40:54;4.00;90.80
75769;DHT22;64379;48.888;8.330;2024-01-07T00:43:19;4.00;90.80
75769;DHT22;64379;48.888;8.330;2024-01-07T00:45:45;4.00;90.80
75769;DHT22;64379;48.888;8.330;2024-01-07T00:48:11;3.90;90.70
75769;DHT22;64379;48.888;8.330;2024-01-07T00:50:36;3.90;90.70
75769;DHT22;64379;48.888;8.330;2024-01-07T00:53:02;3.90;90.90
75769;DHT22;64379;48.888;8.330;2024-01-07T00:55:28;4.00;91.10
75769;DHT22;64379;48.888;8.330;2024-01-07T00:57:53;4.00;91.20
75769;DHT22;64379;48.888;8.330;2024-01-07T01:00:19;4.00;91.30
75769;DHT22;64379;48.888;8.330;2024-01-07T01:02:45;3.90;91.10
75769;DHT22;64379;48.888;8.330;2024-01-07T01:05:11;3.90;91.00
75769;DHT22;64379;48.888;8.330;2024-01-07T01:07:37;3.90;90.80
75769;DHT22;64379;48.888;8.330;2024-01-07T01:10:03;3.70;90.70
75769;DHT22;64379;48.888;8.330;2024-01-07T01:12:28;3.70;90.70
75769;DHT22;64379;48.888;8.330;2024-01-07T01:14:55;3.70;90.70
75769;DHT22;64379;48.888;8.330;2024-01-07T01:17:20;3.70;90.80
75769;DHT22;64379;48.888;8.330;2024-01-07T01:19:46;3.70;90.80
75769;DHT22;64379;48.888;8.330;2024-01-07T01:22:12;3.70;90.80
75769;DHT22;64379;48.888;8.330;2024-01-07T01:24:40;3.70;90.90
75769;DHT22;64379;48.888;8.330;2024-01-07T01:27:06;3.70;91.00
75769;DHT22;64379;48.888;8.330;2024-01-07T01:29:31;3.70;91.10
75769;DHT22;64379;48.888;8.330;2024-01-07T01:31:57;3.60;91.20
75769;DHT22;64379;48.888;8.330;2024-01-07T01:34:22;3.60;91.30
75769;DHT22;64379;48.888;8.330;2024-01-07T01:36:48;3.70;91.30
75769;DHT22;64379;48.888;8.330;2024-01-07T01:39:13;3.70;91.40
75769;DHT22;64379;48.888;8.330;2024-01-07T01:41:40;3.60;91.30
75769;DHT22;64379;48.888;8.330;2024-01-07T01:44:05;3.60;91.30
75769;DHT22;64379;48.888;8.330;2024-01-07T01:46:31;3.60;91.30
75769;DHT22;64379;48.888;8.330;2024-01-07T01:48:58;3.60;91.40
75769;DHT22;64379;48.888;8.330;2024-01-07T01:51:24;3.60;91.40
75769;DHT22;64379;48.888;8.330;2024-01-07T01:53:50;3.60;91.50
75769;DHT22;64379;48.888;8.330;2024-01-07T01:56:20;3.60;91.50
75769;DHT22;64379;48.888;8.330;2024-01-07T01:58:46;3.60;91.60
75769;DHT22;64379;48.888;8.330;2024-01-07T02:01:13;3.60;91.60
75769;DHT22;64379;48.888;8.330;2024-01-07T02:03:39;3.70;91.70
75769;DHT22;64379;48.888;8.330;2024-01-07T02:06:05;3.70;91.70
75769;DHT22;64379;48.888;8.330;2024-01-07T02:08:31;3.60;91.60
75769;DHT22;64379;48.888;8.330;2024-01-07T02:10:57;3.60;91.60
75769;DHT22;64379;48.888;8.330;2024-01-07T02:13:22;3.60;91.60
75769;DHT22;64379;48.888;8.330;2024-01-07T02:15:48;3.50;91.70
75769;DHT22;64379;48.888;8.330;2024-01-07T02:18:14;3.50;91.70
75769;DHT22;64379;48.888;8.330;2024-01-07T02:20:40;3.60;91.80
75769;DHT22;64379;48.888;8.330;2024-01-07T02:23:05;3.60;91.80
75769;DHT22;64379;48.888;8.330;2024-01-07T02:25:37;3.50;91.80
75769;DHT22;64379;48.888;8.330;2024-01-07T02:28:04;3.60;91.90
75769;DHT22;64379;48.888;8.330;2024-01-07T02:30:30;3.50;92.00
75769;DHT22;64379;48.888;8.330;2024-01-07T02:32:55;3.60;92.10
75769;DHT22;64379;48.888;8.330;2024-01-07T02:35:21;3.50;92.10
75769;DHT22;64379;48.888;8.330;2024-01-07T02:37:46;3.50;92.10
75769;DHT22;64379;48.888;8.330;2024-01-07T02:40:15;3.50;92.00
75769;DHT22;64379;48.888;8.330;2024-01-07T02:42:40;3.50;92.10
75769;DHT22;64379;48.888;8.330;2024-01-07T02:45:06;3.60;92.10
75769;DHT22;64379;48.888;8.330;2024-01-07T02:47:32;3.60;92.10
75769;DHT22;64379;48.888;8.330;2024-01-07T02:49:57;3.60;92.10
75769;DHT22;64379;48.888;8.330;2024-01-07T02:52:23;3.60;92.10
75769;DHT22;64379;48.888;8.330;2024-01-07T02:54:48;3.50;92.00
75769;DHT22;64379;48.888;8.330;2024-01-07T02:57:14;3.50;92.00
75769;DHT22;64379;48.888;8.330;2024-01-07T02:59:40;3.50;91.90
75769;DHT22;64379;48.888;8.330;2024-01-07T03:02:05;3.50;91.90
75769;DHT22;64379;48.888;8.330;2024-01-07T03:04:31;3.50;91.90
75769;DHT22;64379;48.888;8.330;2024-01-07T03:06:56;3.50;91.90
75769;DHT22;64379;48.888;8.330;2024-01-07T03:09:22;3.50;91.90
75769;DHT22;64379;48.888;8.330;2024-01-07T03:11:47;3.50;91.80
75769;DHT22;64379;48.888;8.330;2024-01-07T03:14:13;3.50;91.80
75769;DHT22;64379;48.888;8.330;2024-01-07T03:16:38;3.40;91.80
75769;DHT22;64379;48.888;8.330;2024-01-07T03:19:04;3.50;91.80
75769;DHT22;64379;48.888;8.330;2024-01-07T03:21:30;3.50;91.80
75769;DHT22;64379;48.888;8.330;2024-01-07T03:23:55;3.50;91.90
75769;DHT22;64379;48.888;8.330;2024-01-07T03:26:21;3.50;91.90
75769;DHT22;64379;48.888;8.330;2024-01-07T03:28:47;3.50;91.90
75769;DHT22;64379;48.888;8.330;2024-01-07T03:31:18;3.50;91.90
75769;DHT22;64379;48.888;8.330;2024-01-07T03:33:43;3.50;91.90
75769;DHT22;64379;48.888;8.330;2024-01-07T03:36:10;3.50;91.90
75769;DHT22;64379;48.888;8.330;2024-01-07T03:38:36;3.50;91.90
75769;DHT22;64379;48.888;8.330;2024-01-07T03:41:02;3.50;91.80
75769;DHT22;64379;48.888;8.330;2024-01-07T03:43:28;3.50;91.70
75769;DHT22;64379;48.888;8.330;2024-01-07T03:45:54;3.50;91.70
75769;DHT22;64379;48.888;8.330;2024-01-07T03:48:19;3.50;91.70
75769;DHT22;64379;48.888;8.330;2024-01-07T03:50:45;3.60;91.80
75769;DHT22;64379;48.888;8.330;2024-01-07T03:53:11;3.60;91.70
75769;DHT22;64379;48.888;8.330;2024-01-07T03:55:37;3.60;91.70
75769;DHT22;64379;48.888;8.330;2024-01-07T03:58:03;3.60;91.60
75769;DHT22;64379;48.888;8.330;2024-01-07T04:00:29;3.50;91.40
75769;DHT22;64379;48.888;8.330;2024-01-07T04:02:55;3.60;91.40
75769;DHT22;64379;48.888;8.330;2024-01-07T04:05:20;3.60;91.40
75769;DHT22;64379;48.888;8.330;2024-01-07T04:07:46;3.60;91.40
75769;DHT22;64379;48.888;8.330;2024-01-07T04:10:12;3.60;91.30
75769;DHT22;64379;48.888;8.330;2024-01-07T04:12:37;3.50;91.20
75769;DHT22;64379;48.888;8.330;2024-01-07T04:15:04;3.60;91.30
75769;DHT22;64379;48.888;8.330;2024-01-07T04:17:30;3.60;91.40
75769;DHT22;64379;48.888;8.330;2024-01-07T04:19:55;3.60;91.30
75769;DHT22;64379;48.888;8.330;2024-01-07T04:22:21;3.60;91.20
75769;DHT22;64379;48.888;8.330;2024-01-07T04:24:47;3.60;91.30
75769;DHT22;64379;48.888;8.330;2024-01-07T04:27:12;3.60;91.30
75769;DHT22;64379;48.888;8.330;2024-01-07T04:29:38;3.60;91.30
75769;DHT22;64379;48.888;8.330;2024-01-07T04:32:03;3.70;91.30
75769;DHT22;64379;48.888;8.330;2024-01-07T04:34:29;3.70;91.30
75769;DHT22;64379;48.888;8.330;2024-01-07T04:36:55;3.70;91.30
75769;DHT22;64379;48.888;8.330;2024-01-07T04:39:20;3.80;91.30
75769;DHT22;64379;48.888;8.330;2024-01-07T04:41:46;3.70;91.30
75769;DHT22;64379;48.888;8.330;2024-01-07T04:44:11;3.80;91.10
75769;DHT22;64379;48.888;8.330;2024-01-07T04:46:38;3.70;91.10
75769;DHT22;64379;48.888;8.330;2024-01-07T04:49:04;3.60;90.90
75769;DHT22;64379;48.888;8.330;2024-01-07T04:51:31;3.60;90.90
75769;DHT22;64379;48.888;8.330;2024-01-07T04:53:57;3.60;91.00
75769;DHT22;64379;48.888;8.330;2024-01-07T04:56:22;3.60;90.90
75769;DHT22;64379;48.888;8.330;2024-01-07T04:58:48;3.50;90.80
75769;DHT22;64379;48.888;8.330;2024-01-07T05:01:14;3.50;90.90
75769;DHT22;64379;48.888;8.330;2024-01-07T05:03:40;3.60;91.00
75769;DHT22;64379;48.888;8.330;2024-01-07T05:06:08;3.60;91.10
75769;DHT22;64379;48.888;8.330;2024-01-07T05:08:33;3.60;91.20
75769;DHT22;64379;48.888;8.330;2024-01-07T05:10:59;3.50;91.10
75769;DHT22;64379;48.888;8.330;2024-01-07T05:13:24;3.60;91.20
75769;DHT22;64379;48.888;8.330;2024-01-07T05:15:50;3.50;91.20
75769;DHT22;64379;48.888;8.330;2024-01-07T05:18:25;3.50;91.20
75769;DHT22;64379;48.888;8.330;2024-01-07T05:20:51;3.50;91.20
75769;DHT22;64379;48.888;8.330;2024-01-07T05:23:17;3.50;91.20
75769;DHT22;64379;48.888;8.330;2024-01-07T05:25:43;3.50;91.20
75769;DHT22;64379;48.888;8.330;2024-01-07T05:28:10;3.50;91.20
75769;DHT22;64379;48.888;8.330;2024-01-07T05:30:35;3.60;91.20
75769;DHT22;64379;48.888;8.330;2024-01-07T05:33:01;3.50;91.10
75769;DHT22;64379;48.888;8.330;2024-01-07T05:35:27;3.60;91.10
75769;DHT22;64379;48.888;8.330;2024-01-07T05:37:52;3.60;91.20
75769;DHT22;64379;48.888;8.330;2024-01-07T05:40:18;3.60;91.00
75769;DHT22;64379;48.888;8.330;2024-01-07T05:42:43;3.60;91.00
75769;DHT22;64379;48.888;8.330;2024-01-07T05:45:09;3.60;91.00
75769;DHT22;64379;48.888;8.330;2024-01-07T05:47:35;3.60;91.00
75769;DHT22;64379;48.888;8.330;2024-01-07T05:50:00;3.60;91.00
75769;DHT22;64379;48.888;8.330;2024-01-07T05:52:27;3.60;91.00
75769;DHT22;64379;48.888;8.330;2024-01-07T05:54:53;3.60;91.00
75769;DHT22;64379;48.888;8.330;2024-01-07T05:57:18;3.60;91.00
75769;DHT22;64379;48.888;8.330;2024-01-07T05:59:45;3.60;91.00
75769;DHT22;64379;48.888;8.330;2024-01-07T06:02:11;3.60;90.90
75769;DHT22;64379;48.888;8.330;2024-01-07T06:04:38;3.60;90.80
75769;DHT22;64379;48.888;8.330;2024-01-07T06:07:03;3.60;90.70
75769;DHT22;64379;48.888;8.330;2024-01-07T06:09:29;3.50;90.70
75769;DHT22;64379;48.888;8.330;2024-01-07T06:11:55;3.50;90.80
75769;DHT22;64379;48.888;8.330;2024-01-07T06:14:21;3.50;90.60
75769;DHT22;64379;48.888;8.330;2024-01-07T06:16:47;3.50;90.60
75769;DHT22;64379;48.888;8.330;2024-01-07T06:19:13;3.50;90.60
75769;DHT22;64379;48.888;8.330;2024-01-07T06:21:40;3.50;90.60
75769;DHT22;64379;48.888;8.330;2024-01-07T06:24:07;3.50;90.60
75769;DHT22;64379;48.888;8.330;2024-01-07T06:26:33;3.60;90.70
75769;DHT22;64379;48.888;8.330;2024-01-07T06:28:59;3.60;90.70
75769;DHT22;64379;48.888;8.330;2024-01-07T06:31:25;3.60;90.60
75769;DHT22;64379;48.888;8.330;2024-01-07T06:33:50;3.60;90.50
75769;DHT22;64379;48.888;8.330;2024-01-07T06:36:16;3.50;90.50
75769;DHT22;64379;48.888;8.330;2024-01-07T06:38:42;3.50;90.50
75769;DHT22;64379;48.888;8.330;2024-01-07T06:41:07;3.60;90.40
75769;DHT22;64379;48.888;8.330;2024-01-07T06:43:33;3.50;90.30
75769;DHT22;64379;48.888;8.330;2024-01-07T06:45:58;3.50;90.30
75769;DHT22;64379;48.888;8.330;2024-01-07T06:48:24;3.60;90.40
75769;DHT22;64379;48.888;8.330;2024-01-07T06:50:50;3.60;90.40
75769;DHT22;64379;48.888;8.330;2024-01-07T06:53:16;3.50;90.30
75769;DHT22;64379;48.888;8.330;2024-01-07T06:55:41;3.50;90.20
75769;DHT22;64379;48.888;8.330;2024-01-07T06:58:07;3.50;90.30
75769;DHT22;64379;48.888;8.330;2024-01-07T07:00:33;3.50;90.40
75769;DHT22;64379;48.888;8.330;2024-01-07T07:02:59;3.60;90.40
75769;DHT22;64379;48.888;8.330;2024-01-07T07:05:24;3.60;90.30
75769;DHT22;64379;48.888;8.330;2024-01-07T07:07:50;3.60;90.30
75769;DHT22;64379;48.888;8.330;2024-01-07T07:10:15;3.60;90.20
75769;DHT22;64379;48.888;8.330;2024-01-07T07:12:41;3.60;90.20
75769;DHT22;64379;48.888;8.330;2024-01-07T07:15:07;3.60;90.30
75769;DHT22;64379;48.888;8.330;2024-01-07T07:17:36;3.60;90.30
75769;DHT22;64379;48.888;8.330;2024-01-07T07:20:02;3.60;90.10
75769;DHT22;64379;48.888;8.330;2024-01-07T07:22:27;3.60;90.10
75769;DHT22;64379;48.888;8.330;2024-01-07T07:24:53;3.60;90.10
75769;DHT22;64379;48.888;8.330;2024-01-07T07:27:19;3.50;90.00
75769;DHT22;64379;48.888;8.330;2024-01-07T07:29:45;3.60;90.10
75769;DHT22;64379;48.888;8.330;2024-01-07T07:32:10;3.60;90.20
75769;DHT22;64379;48.888;8.330;2024-01-07T07:34:36;3.60;90.30
75769;DHT22;64379;48.888;8.330;2024-01-07T07:37:02;3.60;90.40
75769;DHT22;64379;48.888;8.330;2024-01-07T07:39:28;3.70;90.40
75769;DHT22;64379;48.888;8.330;2024-01-07T07:41:54;3.70;90.40
75769;DHT22;64379;48.888;8.330;2024-01-07T07:44:19;3.70;90.50
75769;DHT22;64379;48.888;8.330;2024-01-07T07:46:45;3.70;90.50
75769;DHT22;64379;48.888;8.330;2024-01-07T07:49:11;3.60;90.40
75769;DHT22;64379;48.888;8.330;2024-01-07T07:51:36;3.60;90.40
75769;DHT22;64379;48.888;8.330;2024-01-07T07:54:02;3.60;90.50
75769;DHT22;64379;48.888;8.330;2024-01-07T07:56:28;3.60;90.60
75769;DHT22;64379;48.888;8.330;2024-01-07T07:58:54;3.60;90.60
75769;DHT22;64379;48.888;8.330;2024-01-07T08:01:20;3.60;90.80
75769;DHT22;64379;48.888;8.330;2024-01-07T08:03:45;3.60;90.80
75769;DHT22;64379;48.888;8.330;2024-01-07T08:06:11;3.60;90.60
75769;DHT22;64379;48.888;8.330;2024-01-07T08:08:36;3.60;90.60
75769;DHT22;64379;48.888;8.330;2024-01-07T08:11:02;3.60;90.50
75769;DHT22;64379;48.888;8.330;2024-01-07T08:13:28;3.60;90.40
75769;DHT22;64379;48.888;8.330;2024-01-07T08:15:53;3.60;90.50
75769;DHT22;64379;48.888;8.330;2024-01-07T08:18:19;3.60;90.70
75769;DHT22;64379;48.888;8.330;2024-01-07T08:20:45;3.60;90.60
75769;DHT22;64379;48.888;8.330;2024-01-07T08:23:10;3.60;90.70
75769;DHT22;64379;48.888;8.330;2024-01-07T08:25:36;3.60;90.60
75769;DHT22;64379;48.888;8.330;2024-01-07T08:28:02;3.60;90.70
75769;DHT22;64379;48.888;8.330;2024-01-07T08:30:28;3.70;90.80
75769;DHT22;64379;48.888;8.330;2024-01-07T08:32:53;3.70;90.90
75769;DHT22;64379;48.888;8.330;2024-01-07T08:35:19;3.70;91.00
75769;DHT22;64379;48.888;8.330;2024-01-07T08:37:44;3.70;91.00
75769;DHT22;64379;48.888;8.330;2024-01-07T08:40:11;3.70;90.90
75769;DHT22;64379;48.888;8.330;2024-01-07T08:42:38;3.70;90.90
75769;DHT22;64379;48.888;8.330;2024-01-07T08:45:05;3.70;90.80
75769;DHT22;64379;48.888;8.330;2024-01-07T08:47:31;3.70;90.90
75769;DHT22;64379;48.888;8.330;2024-01-07T08:49:57;3.70;90.80
75769;DHT22;64379;48.888;8.330;2024-01-07T08:52:23;3.70;90.90
75769;DHT22;64379;48.888;8.330;2024-01-07T08:54:49;3.60;91.00
75769;DHT22;64379;48.888;8.330;2024-01-07T08:57:14;3.60;91.00
75769;DHT22;64379;48.888;8.330;2024-01-07T08:59:40;3.70;91.10
75769;DHT22;64379;48.888;8.330;2024-01-07T09:02:07;3.70;91.20
75769;DHT22;64379;48.888;8.330;2024-01-07T09:04:32;3.70;91.30
75769;DHT22;64379;48.888;8.330;2024-01-07T09:06:59;3.70;91.20
75769;DHT22;64379;48.888;8.330;2024-01-07T09:09:24;3.70;91.30
75769;DHT22;64379;48.888;8.330;2024-01-07T09:11:50;3.70;91.40
75769;DHT22;64379;48.888;8.330;2024-01-07T09:14:17;3.70;91.30
75769;DHT22;64379;48.888;8.330;2024-01-07T09:16:43;3.80;91.20
75769;DHT22;64379;48.888;8.330;2024-01-07T09:19:08;3.70;91.20
75769;DHT22;64379;48.888;8.330;2024-01-07T09:21:34;3.80;91.10
75769;DHT22;64379;48.888;8.330;2024-01-07T09:23:59;3.80;91.10
75769;DHT22;64379;48.888;8.330;2024-01-07T09:26:25;3.80;90.90
75769;DHT22;64379;48.888;8.330;2024-01-07T09:28:51;3.90;91.00
75769;DHT22;64379;48.888;8.330;2024-01-07T09:31:17;3.80;91.00
75769;DHT22;64379;48.888;8.330;2024-01-07T09:33:43;3.90;91.10
75769;DHT22;64379;48.888;8.330;2024-01-07T09:36:08;3.90;91.20
75769;DHT22;64379;48.888;8.330;2024-01-07T09:38:34;3.90;91.20
75769;DHT22;64379;48.888;8.330;2024-01-07T09:40:59;3.90;91.20
75769;DHT22;64379;48.888;8.330;2024-01-07T09:43:25;3.90;91.20
75769;DHT22;64379;48.888;8.330;2024-01-07T09:45:51;4.00;91.10
75769;DHT22;64379;48.888;8.330;2024-01-07T09:48:18;3.90;91.10
75769;DHT22;64379;48.888;8.330;2024-01-07T09:50:44;4.00;91.00
75769;DHT22;64379;48.888;8.330;2024-01-07T09:53:15;4.00;90.60
75769;DHT22;64379;48.888;8.330;2024-01-07T09:55:57;4.00;90.50
75769;DHT22;64379;48.888;8.330;2024-01-07T09:58:26;4.10;90.30
75769;DHT22;64379;48.888;8.330;2024-01-07T10:00:53;4.10;90.40
75769;DHT22;64379;48.888;8.330;2024-01-07T10:03:19;4.00;90.20
75769;DHT22;64379;48.888;8.330;2024-01-07T10:05:45;4.10;90.20
75769;DHT22;64379;48.888;8.330;2024-01-07T10:08:10;4.10;90.10
75769;DHT22;64379;48.888;8.330;2024-01-07T10:10:36;4.10;90.00
75769;DHT22;64379;48.888;8.330;2024-01-07T10:13:02;4.10;89.90
75769;DHT22;64379;48.888;8.330;2024-01-07T10:15:32;4.10;89.70
75769;DHT22;64379;48.888;8.330;2024-01-07T10:18:04;4.10;89.60
75769;DHT22;64379;48.888;8.330;2024-01-07T10:20:34;4.10;89.90
75769;DHT22;64379;48.888;8.330;2024-01-07T10:23:01;4.10;89.80
75769;DHT22;64379;48.888;8.330;2024-01-07T10:25:26;4.10;89.60
75769;DHT22;64379;48.888;8.330;2024-01-07T10:27:53;4.10;89.50
75769;DHT22;64379;48.888;8.330;2024-01-07T10:30:19;4.00;89.10
75769;DHT22;64379;48.888;8.330;2024-01-07T10:32:44;4.10;89.50
75769;DHT22;64379;48.888;8.330;2024-01-07T10:35:15;4.10;89.50
75769;DHT22;64379;48.888;8.330;2024-01-07T10:37:43;4.10;89.50
75769;DHT22;64379;48.888;8.330;2024-01-07T10:46:44;4.10;89.50
75769;DHT22;64379;48.888;8.330;2024-01-07T10:49:19;4.10;89.30
75769;DHT22;64379;48.888;8.330;2024-01-07T10:52:09;4.10;89.20
75769;DHT22;64379;48.888;8.330;2024-01-07T10:54:37;4.10;88.90
75769;DHT22;64379;48.888;8.330;2024-01-07T10:59:56;4.10;88.60
75769;DHT22;64379;48.888;8.330;2024-01-07T11:02:22;4.10;88.50
75769;DHT22;64379;48.888;8.330;2024-01-07T11:05:03;4.10;87.50
75769;DHT22;64379;48.888;8.330;2024-01-07T11:07:44;4.10;87.30
75769;DHT22;64379;48.888;8.330;2024-01-07T11:10:14;4.10;87.60
75769;DHT22;64379;48.888;8.330;2024-01-07T11:12:43;4.20;87.60
75769;DHT22;64379;48.888;8.330;2024-01-07T11:15:08;4.20;87.50
75769;DHT22;64379;48.888;8.330;2024-01-07T11:23:33;3.90;81.80
75769;DHT22;64379;48.888;8.330;2024-01-07T11:26:03;3.90;82.80
75769;DHT22;64379;48.888;8.330;2024-01-07T11:31:20;3.90;82.40
75769;DHT22;64379;48.888;8.330;2024-01-07T11:33:50;3.90;81.50
75769;DHT22;64379;48.888;8.330;2024-01-07T11:36:17;3.90;80.70
75769;DHT22;64379;48.888;8.330;2024-01-07T11:38:53;3.90;81.10
75769;DHT22;64379;48.888;8.330;2024-01-07T11:41:20;3.90;80.00
75769;DHT22;64379;48.888;8.330;2024-01-07T11:44:00;3.90;79.00
75769;DHT22;64379;48.888;8.330;2024-01-07T11:46:29;3.90;79.00
75769;DHT22;64379;48.888;8.330;2024-01-07T11:48:58;3.80;80.00
75769;DHT22;64379;48.888;8.330;2024-01-07T11:51:43;3.90;80.10
75769;DHT22;64379;48.888;8.330;2024-01-07T11:54:12;3.80;78.60
75769;DHT22;64379;48.888;8.330;2024-01-07T11:56:40;3.80;78.60
75769;DHT22;64379;48.888;8.330;2024-01-07T11:59:06;3.90;79.20
75769;DHT22;64379;48.888;8.330;2024-01-07T12:01:32;3.90;78.60
75769;DHT22;64379;48.888;8.330;2024-01-07T12:04:00;3.90;78.00
75769;DHT22;64379;48.888;8.330;2024-01-07T12:06:26;4.00;78.30
75769;DHT22;64379;48.888;8.330;2024-01-07T12:08:55;4.00;77.50
75769;DHT22;64379;48.888;8.330;2024-01-07T12:11:21;4.10;77.70
75769;DHT22;64379;48.888;8.330;2024-01-07T12:13:47;4.10;77.70
75769;DHT22;64379;48.888;8.330;2024-01-07T12:16:12;4.00;77.90
75769;DHT22;64379;48.888;8.330;2024-01-07T12:18:41;3.90;76.10
75769;DHT22;64379;48.888;8.330;2024-01-07T12:21:07;3.90;75.20
75769;DHT22;64379;48.888;8.330;2024-01-07T12:23:37;3.90;75.70
75769;DHT22;64379;48.888;8.330;2024-01-07T12:26:10;3.90;75.50
75769;DHT22;64379;48.888;8.330;2024-01-07T12:28:37;3.90;76.00
75769;DHT22;64379;48.888;8.330;2024-01-07T12:31:04;3.90;75.50
75769;DHT22;64379;48.888;8.330;2024-01-07T12:33:32;3.80;74.40
75769;DHT22;64379;48.888;8.330;2024-01-07T12:35:59;3.70;74.10
75769;DHT22;64379;48.888;8.330;2024-01-07T12:38:24;3.60;73.60
75769;DHT22;64379;48.888;8.330;2024-01-07T12:40:51;3.60;73.60
75769;DHT22;64379;48.888;8.330;2024-01-07T12:43:17;3.60;73.70
75769;DHT22;64379;48.888;8.330;2024-01-07T12:45:43;3.60;73.80
75769;DHT22;64379;48.888;8.330;2024-01-07T12:48:14;3.60;74.80
75769;DHT22;64379;48.888;8.330;2024-01-07T12:50:40;3.60;74.50
75769;DHT22;64379;48.888;8.330;2024-01-07T12:53:06;3.60;74.80
75769;DHT22;64379;48.888;8.330;2024-01-07T12:55:32;3.60;74.00
75769;DHT22;64379;48.888;8.330;2024-01-07T12:58:00;3.70;74.30
75769;DHT22;64379;48.888;8.330;2024-01-07T13:00:28;3.60;74.40
75769;DHT22;64379;48.888;8.330;2024-01-07T13:02:57;3.60;73.70
75769;DHT22;64379;48.888;8.330;2024-01-07T13:05:23;3.70;74.60
75769;DHT22;64379;48.888;8.330;2024-01-07T13:07:49;3.70;74.30
75769;DHT22;64379;48.888;8.330;2024-01-07T13:10:15;3.70;73.80
75769;DHT22;64379;48.888;8.330;2024-01-07T13:12:41;3.60;73.00
75769;DHT22;64379;48.888;8.330;2024-01-07T13:15:07;3.60;72.80
75769;DHT22;64379;48.888;8.330;2024-01-07T13:17:34;3.60;73.30
75769;DHT22;64379;48.888;8.330;2024-01-07T13:20:03;3.50;73.60
75769;DHT22;64379;48.888;8.330;2024-01-07T13:22:34;3.50;73.00
75769;DHT22;64379;48.888;8.330;2024-01-07T13:24:59;3.50;72.90
75769;DHT22;64379;48.888;8.330;2024-01-07T13:27:25;3.50;72.70
75769;DHT22;64379;48.888;8.330;2024-01-07T13:29:51;3.50;72.70
75769;DHT22;64379;48.888;8.330;2024-01-07T13:32:16;3.50;72.00
75769;DHT22;64379;48.888;8.330;2024-01-07T13:34:44;3.50;72.40
75769;DHT22;64379;48.888;8.330;2024-01-07T13:37:10;3.50;72.40
75769;DHT22;64379;48.888;8.330;2024-01-07T13:39:38;3.50;72.50
75769;DHT22;64379;48.888;8.330;2024-01-07T13:42:06;3.50;72.60
75769;DHT22;64379;48.888;8.330;2024-01-07T13:44:34;3.40;71.30
75769;DHT22;64379;48.888;8.330;2024-01-07T13:47:00;3.30;70.70
75769;DHT22;64379;48.888;8.330;2024-01-07T13:49:29;3.30;70.80
75769;DHT22;64379;48.888;8.330;2024-01-07T13:51:55;3.30;72.10
75769;DHT22;64379;48.888;8.330;2024-01-07T13:54:20;3.30;71.50
75769;DHT22;64379;48.888;8.330;2024-01-07T13:56:46;3.30;72.40
75769;DHT22;64379;48.888;8.330;2024-01-07T13:59:12;3.30;73.20
75769;DHT22;64379;48.888;8.330;2024-01-07T14:01:38;3.30;72.70
75769;DHT22;64379;48.888;8.330;2024-01-07T14:04:07;3.30;73.00
75769;DHT22;64379;48.888;8.330;2024-01-07T14:06:32;3.30;72.70
75769;DHT22;64379;48.888;8.330;2024-01-07T14:09:00;3.30;72.50
75769;DHT22;64379;48.888;8.330;2024-01-07T14:11:29;3.20;72.10
75769;DHT22;64379;48.888;8.330;2024-01-07T14:13:54;3.10;71.10
75769;DHT22;64379;48.888;8.330;2024-01-07T14:16:20;3.10;70.90
75769;DHT22;64379;48.888;8.330;2024-01-07T14:18:45;3.10;71.20
75769;DHT22;64379;48.888;8.330;2024-01-07T14:21:11;3.10;71.40
75769;DHT22;64379;48.888;8.330;2024-01-07T14:23:37;3.10;71.20
75769;DHT22;64379;48.888;8.330;2024-01-07T14:26:02;3.00;71.10
75769;DHT22;64379;48.888;8.330;2024-01-07T14:28:29;3.00;71.60
75769;DHT22;64379;48.888;8.330;2024-01-07T14:30:54;3.00;72.20
75769;DHT22;64379;48.888;8.330;2024-01-07T14:33:22;2.90;71.10
75769;DHT22;64379;48.888;8.330;2024-01-07T14:35:49;2.90;71.40
75769;DHT22;64379;48.888;8.330;2024-01-07T14:38:20;2.90;70.60
75769;DHT22;64379;48.888;8.330;2024-01-07T14:40:45;2.80;71.10
75769;DHT22;64379;48.888;8.330;2024-01-07T14:43:13;2.80;71.20
75769;DHT22;64379;48.888;8.330;2024-01-07T14:45:39;2.80;70.90
75769;DHT22;64379;48.888;8.330;2024-01-07T14:48:07;2.80;71.40
75769;DHT22;64379;48.888;8.330;2024-01-07T14:50:33;2.70;70.80
75769;DHT22;64379;48.888;8.330;2024-01-07T14:52:59;2.70;70.50
75769;DHT22;64379;48.888;8.330;2024-01-07T14:55:25;2.70;70.80
75769;DHT22;64379;48.888;8.330;2024-01-07T14:57:50;2.70;70.90
75769;DHT22;64379;48.888;8.330;2024-01-07T15:00:16;2.70;72.10
75769;DHT22;64379;48.888;8.330;2024-01-07T15:02:42;2.60;71.50
75769;DHT22;64379;48.888;8.330;2024-01-07T15:05:11;2.60;71.80
75769;DHT22;64379;48.888;8.330;2024-01-07T15:07:36;2.50;71.20
75769;DHT22;64379;48.888;8.330;2024-01-07T15:10:02;2.50;70.80
75769;DHT22;64379;48.888;8.330;2024-01-07T15:12:28;2.50;71.00
75769;DHT22;64379;48.888;8.330;2024-01-07T15:15:02;2.50;71.20
75769;DHT22;64379;48.888;8.330;2024-01-07T15:17:31;2.50;70.80
75769;DHT22;64379;48.888;8.330;2024-01-07T15:19:57;2.50;71.00
75769;DHT22;64379;48.888;8.330;2024-01-07T15:22:28;2.50;71.60
75769;DHT22;64379;48.888;8.330;2024-01-07T15:24:53;2.40;71.50
75769;DHT22;64379;48.888;8.330;2024-01-07T15:27:19;2.50;72.10
75769;DHT22;64379;48.888;8.330;2024-01-07T15:29:44;2.40;72.20
75769;DHT22;64379;48.888;8.330;2024-01-07T15:32:10;2.40;71.60
75769;DHT22;64379;48.888;8.330;2024-01-07T15:34:43;2.40;71.60
75769;DHT22;64379;48.888;8.330;2024-01-07T15:37:16;2.30;72.20
75769;DHT22;64379;48.888;8.330;2024-01-07T15:39:43;2.30;71.40
75769;DHT22;64379;48.888;8.330;2024-01-07T15:42:09;2.20;70.00
75769;DHT22;64379;48.888;8.330;2024-01-07T15:44:42;2.20;70.40
75769;DHT22;64379;48.888;8.330;2024-01-07T15:47:09;2.20;71.20
75769;DHT22;64379;48.888;8.330;2024-01-07T15:49:35;2.20;70.60
75769;DHT22;64379;48.888;8.330;2024-01-07T15:52:01;2.20;70.60
75769;DHT22;64379;48.888;8.330;2024-01-07T15:54:27;2.10;71.30
75769;DHT22;64379;48.888;8.330;2024-01-07T15:56:52;2.10;70.60
75769;DHT22;64379;48.888;8.330;2024-01-07T15:59:20;2.10;70.80